Gent, Belgium

5:28 AM CET op 05 december 2016 (GMT +0100)
Sas van Gent | | Change Station

Hoogte 3 ft 51.22 °N, 3.79 °E | Updated 17 seconds ago

Clear
Helder
26.0 °F
Voelt als 26 °F
N
3.0
Wind Variabel Wind van OZO
Gusts 6.0 mijl/u

Vandaag
Hoog -- | Laag -- °F
--% Kans op neerslag
Gisteren
Hoog -- | Laag -- °F
Precip. -- inches
Druk 30.27 inches
Zicht -9999.0 mijlen
Wolken
Gevoelstemperatuur 26 °F
Dauwpunt 25 °F
Vochtigheid 95%
Neerslag 0.00 inches
Dikte sneeuw Niet beschikbaar.
8:32 AM 4:38 PM
Wassende halvemaan, 28% visible
METAR EBAW 050420Z AUTO 10002KT CAVOK M04/M06 Q1025
Druk 30.27 inches
Zicht -9999.0 mijlen
Wolken
Gevoelstemperatuur 26 °F
Dauwpunt 25 °F
Vochtigheid 95%
Neerslag 0.00 inches
Dikte sneeuw Niet beschikbaar.
8:32 AM 4:38 PM
Wassende halvemaan, 28% visible
METAR EBAW 050420Z AUTO 10002KT CAVOK M04/M06 Q1025

10-Day Weather Forecast

×

Almanac

Astronomie

Dec. 05, 2016 Opkomst Ondergang
Werkelijke tijd
Burgerlijke schemering
Nautische schemering
Astronomische schemering
Maan
Golflengte van het zichtbare licht
Daglengte
Tomorrow will be .
, % of the Moon is Illuminated

Extremen vandaag

Country Highs Country Lows

Community

WunderPhotos

Upload Photos

1,955,759 foto’s ge-upload!

WunderBlog® & News

Nearby

Luchtkwaliteit

  Luchtkwaliteit LK-index Verontreinigende stof
Not available.

Dikte sneeuw

Station Depth Geometrische hoogte

Aardbevingen

Stad Distance Mag. Time & Date
Minimum magnitude displayed is 2.5.

Watertemperatuur langs de kust

Plaats Temperatuur

Stations

Nabije weerstations

Locatie station Temp. Gevoelstemperatuur Dauwpunt Vochtigheid Wind Precip. Hoogte Geactualiseerd Type